sensor_id;sensor_type;location;lat;lon;timestamp;P1;durP1;ratioP1;P2;durP2;ratioP2
13693;SDS011;6919;52.344;14.518;2024-03-07T00:01:39;57.03;;;27.30;;
13693;SDS011;6919;52.344;14.518;2024-03-07T00:04:08;51.27;;;27.20;;
13693;SDS011;6919;52.344;14.518;2024-03-07T00:06:36;47.93;;;26.63;;
13693;SDS011;6919;52.344;14.518;2024-03-07T00:09:06;50.90;;;26.53;;
13693;SDS011;6919;52.344;14.518;2024-03-07T00:11:37;43.33;;;27.13;;
13693;SDS011;6919;52.344;14.518;2024-03-07T00:14:06;48.07;;;26.07;;
13693;SDS011;6919;52.344;14.518;2024-03-07T00:16:34;48.83;;;26.20;;
13693;SDS011;6919;52.344;14.518;2024-03-07T00:19:02;41.70;;;25.37;;
13693;SDS011;6919;52.344;14.518;2024-03-07T00:21:30;39.53;;;24.67;;
13693;SDS011;6919;52.344;14.518;2024-03-07T00:23:59;39.50;;;25.10;;
13693;SDS011;6919;52.344;14.518;2024-03-07T00:26:27;47.43;;;26.13;;
13693;SDS011;6919;52.344;14.518;2024-03-07T00:28:58;46.13;;;26.27;;
13693;SDS011;6919;52.344;14.518;2024-03-07T00:31:26;50.47;;;25.50;;
13693;SDS011;6919;52.344;14.518;2024-03-07T00:33:56;48.97;;;24.20;;
13693;SDS011;6919;52.344;14.518;2024-03-07T00:36:38;42.40;;;24.20;;
13693;SDS011;6919;52.344;14.518;2024-03-07T00:39:06;46.47;;;25.67;;
13693;SDS011;6919;52.344;14.518;2024-03-07T00:41:38;44.67;;;23.70;;
13693;SDS011;6919;52.344;14.518;2024-03-07T00:44:08;43.50;;;25.10;;
13693;SDS011;6919;52.344;14.518;2024-03-07T00:46:36;42.63;;;24.17;;
13693;SDS011;6919;52.344;14.518;2024-03-07T00:49:05;43.17;;;24.33;;
13693;SDS011;6919;52.344;14.518;2024-03-07T00:51:33;43.23;;;25.27;;
13693;SDS011;6919;52.344;14.518;2024-03-07T00:54:03;47.90;;;24.73;;
13693;SDS011;6919;52.344;14.518;2024-03-07T00:56:32;45.87;;;24.07;;
13693;SDS011;6919;52.344;14.518;2024-03-07T00:59:02;41.23;;;25.43;;
13693;SDS011;6919;52.344;14.518;2024-03-07T01:01:33;49.00;;;26.43;;
13693;SDS011;6919;52.344;14.518;2024-03-07T01:04:03;44.77;;;24.73;;
13693;SDS011;6919;52.344;14.518;2024-03-07T01:06:31;50.30;;;26.30;;
13693;SDS011;6919;52.344;14.518;2024-03-07T01:08:59;45.13;;;25.70;;
13693;SDS011;6919;52.344;14.518;2024-03-07T01:11:28;41.77;;;25.47;;
13693;SDS011;6919;52.344;14.518;2024-03-07T01:13:56;45.73;;;25.87;;
13693;SDS011;6919;52.344;14.518;2024-03-07T01:16:25;43.23;;;26.00;;
13693;SDS011;6919;52.344;14.518;2024-03-07T01:18:54;47.97;;;26.30;;
13693;SDS011;6919;52.344;14.518;2024-03-07T01:21:23;39.63;;;24.63;;
13693;SDS011;6919;52.344;14.518;2024-03-07T01:23:52;49.17;;;26.43;;
13693;SDS011;6919;52.344;14.518;2024-03-07T01:26:21;47.40;;;25.77;;
13693;SDS011;6919;52.344;14.518;2024-03-07T01:28:51;42.47;;;26.60;;
13693;SDS011;6919;52.344;14.518;2024-03-07T01:31:21;47.00;;;25.83;;
13693;SDS011;6919;52.344;14.518;2024-03-07T01:33:49;50.93;;;26.87;;
13693;SDS011;6919;52.344;14.518;2024-03-07T01:36:19;45.70;;;25.93;;
13693;SDS011;6919;52.344;14.518;2024-03-07T01:38:48;49.77;;;26.43;;
13693;SDS011;6919;52.344;14.518;2024-03-07T01:41:18;48.20;;;26.60;;
13693;SDS011;6919;52.344;14.518;2024-03-07T01:43:46;44.60;;;24.90;;
13693;SDS011;6919;52.344;14.518;2024-03-07T01:46:15;43.27;;;24.23;;
13693;SDS011;6919;52.344;14.518;2024-03-07T01:48:43;43.37;;;24.47;;
13693;SDS011;6919;52.344;14.518;2024-03-07T01:51:13;40.90;;;23.53;;
13693;SDS011;6919;52.344;14.518;2024-03-07T01:53:43;45.73;;;25.33;;
13693;SDS011;6919;52.344;14.518;2024-03-07T01:56:13;45.03;;;25.37;;
13693;SDS011;6919;52.344;14.518;2024-03-07T01:58:41;39.17;;;25.07;;
13693;SDS011;6919;52.344;14.518;2024-03-07T02:01:13;48.00;;;24.63;;
13693;SDS011;6919;52.344;14.518;2024-03-07T02:03:42;47.50;;;25.50;;
13693;SDS011;6919;52.344;14.518;2024-03-07T02:06:10;46.50;;;26.07;;
13693;SDS011;6919;52.344;14.518;2024-03-07T02:08:39;40.23;;;23.20;;
13693;SDS011;6919;52.344;14.518;2024-03-07T02:11:09;38.47;;;23.83;;
13693;SDS011;6919;52.344;14.518;2024-03-07T02:13:37;45.93;;;25.80;;
13693;SDS011;6919;52.344;14.518;2024-03-07T02:16:05;46.63;;;25.40;;
13693;SDS011;6919;52.344;14.518;2024-03-07T02:18:35;43.67;;;25.53;;
13693;SDS011;6919;52.344;14.518;2024-03-07T02:21:07;43.97;;;24.80;;
13693;SDS011;6919;52.344;14.518;2024-03-07T02:23:38;40.97;;;24.73;;
13693;SDS011;6919;52.344;14.518;2024-03-07T02:26:07;39.53;;;23.83;;
13693;SDS011;6919;52.344;14.518;2024-03-07T02:28:35;40.70;;;24.10;;
13693;SDS011;6919;52.344;14.518;2024-03-07T02:31:04;39.33;;;23.03;;
13693;SDS011;6919;52.344;14.518;2024-03-07T02:33:32;40.13;;;23.47;;
13693;SDS011;6919;52.344;14.518;2024-03-07T02:36:00;43.10;;;24.23;;
13693;SDS011;6919;52.344;14.518;2024-03-07T02:38:31;41.87;;;23.20;;
13693;SDS011;6919;52.344;14.518;2024-03-07T02:40:59;41.10;;;24.87;;
13693;SDS011;6919;52.344;14.518;2024-03-07T02:43:27;42.37;;;23.83;;
13693;SDS011;6919;52.344;14.518;2024-03-07T02:45:55;39.03;;;24.07;;
13693;SDS011;6919;52.344;14.518;2024-03-07T02:48:24;38.60;;;22.30;;
13693;SDS011;6919;52.344;14.518;2024-03-07T02:50:52;41.00;;;24.83;;
13693;SDS011;6919;52.344;14.518;2024-03-07T02:53:21;44.80;;;23.50;;
13693;SDS011;6919;52.344;14.518;2024-03-07T02:55:50;47.17;;;24.03;;
13693;SDS011;6919;52.344;14.518;2024-03-07T02:58:18;40.00;;;23.37;;
13693;SDS011;6919;52.344;14.518;2024-03-07T03:00:47;47.30;;;24.70;;
13693;SDS011;6919;52.344;14.518;2024-03-07T03:03:16;39.97;;;23.37;;
13693;SDS011;6919;52.344;14.518;2024-03-07T03:05:44;40.47;;;22.77;;
13693;SDS011;6919;52.344;14.518;2024-03-07T03:08:12;39.90;;;21.67;;
13693;SDS011;6919;52.344;14.518;2024-03-07T03:10:41;48.27;;;24.47;;
13693;SDS011;6919;52.344;14.518;2024-03-07T03:13:11;39.63;;;23.80;;
13693;SDS011;6919;52.344;14.518;2024-03-07T03:15:42;40.33;;;24.27;;
13693;SDS011;6919;52.344;14.518;2024-03-07T03:18:10;51.97;;;25.00;;
13693;SDS011;6919;52.344;14.518;2024-03-07T03:20:39;42.13;;;25.27;;
13693;SDS011;6919;52.344;14.518;2024-03-07T03:23:09;39.53;;;21.90;;
13693;SDS011;6919;52.344;14.518;2024-03-07T03:25:46;42.93;;;24.90;;
13693;SDS011;6919;52.344;14.518;2024-03-07T03:28:17;47.83;;;24.53;;
13693;SDS011;6919;52.344;14.518;2024-03-07T03:30:47;45.60;;;24.57;;
13693;SDS011;6919;52.344;14.518;2024-03-07T03:33:17;36.77;;;21.40;;
13693;SDS011;6919;52.344;14.518;2024-03-07T03:35:47;40.27;;;24.20;;
13693;SDS011;6919;52.344;14.518;2024-03-07T03:38:15;42.57;;;24.10;;
13693;SDS011;6919;52.344;14.518;2024-03-07T03:40:46;44.73;;;24.53;;
13693;SDS011;6919;52.344;14.518;2024-03-07T03:43:14;42.83;;;24.50;;
13693;SDS011;6919;52.344;14.518;2024-03-07T03:45:44;41.43;;;24.40;;
13693;SDS011;6919;52.344;14.518;2024-03-07T03:48:14;46.90;;;24.77;;
13693;SDS011;6919;52.344;14.518;2024-03-07T03:50:42;43.10;;;24.43;;
13693;SDS011;6919;52.344;14.518;2024-03-07T03:53:13;41.93;;;24.90;;
13693;SDS011;6919;52.344;14.518;2024-03-07T03:55:41;41.60;;;23.97;;
13693;SDS011;6919;52.344;14.518;2024-03-07T03:58:09;49.10;;;24.37;;
13693;SDS011;6919;52.344;14.518;2024-03-07T04:00:38;44.80;;;25.13;;
13693;SDS011;6919;52.344;14.518;2024-03-07T04:03:08;42.53;;;23.93;;
13693;SDS011;6919;52.344;14.518;2024-03-07T04:05:36;43.27;;;23.27;;
13693;SDS011;6919;52.344;14.518;2024-03-07T04:08:04;45.63;;;25.57;;
13693;SDS011;6919;52.344;14.518;2024-03-07T04:10:33;42.97;;;23.47;;
13693;SDS011;6919;52.344;14.518;2024-03-07T04:13:02;40.47;;;24.27;;
13693;SDS011;6919;52.344;14.518;2024-03-07T04:15:30;43.43;;;25.90;;
13693;SDS011;6919;52.344;14.518;2024-03-07T04:18:02;39.73;;;23.57;;
13693;SDS011;6919;52.344;14.518;2024-03-07T04:20:33;42.90;;;23.00;;
13693;SDS011;6919;52.344;14.518;2024-03-07T04:23:02;45.00;;;23.00;;
13693;SDS011;6919;52.344;14.518;2024-03-07T04:25:34;39.00;;;22.87;;
13693;SDS011;6919;52.344;14.518;2024-03-07T04:28:02;40.33;;;24.47;;
13693;SDS011;6919;52.344;14.518;2024-03-07T04:30:31;44.97;;;24.30;;
13693;SDS011;6919;52.344;14.518;2024-03-07T04:32:59;34.63;;;22.17;;
13693;SDS011;6919;52.344;14.518;2024-03-07T04:35:28;40.40;;;23.23;;
13693;SDS011;6919;52.344;14.518;2024-03-07T04:37:58;38.97;;;22.77;;
13693;SDS011;6919;52.344;14.518;2024-03-07T04:40:27;42.47;;;23.17;;
13693;SDS011;6919;52.344;14.518;2024-03-07T04:42:55;35.90;;;21.20;;
13693;SDS011;6919;52.344;14.518;2024-03-07T04:45:23;39.40;;;24.50;;
13693;SDS011;6919;52.344;14.518;2024-03-07T04:47:52;41.90;;;23.70;;
13693;SDS011;6919;52.344;14.518;2024-03-07T04:50:20;41.83;;;22.53;;
13693;SDS011;6919;52.344;14.518;2024-03-07T04:52:48;41.23;;;23.73;;
13693;SDS011;6919;52.344;14.518;2024-03-07T04:55:18;40.40;;;23.47;;
13693;SDS011;6919;52.344;14.518;2024-03-07T04:57:47;35.70;;;21.87;;
13693;SDS011;6919;52.344;14.518;2024-03-07T05:00:15;38.93;;;23.20;;
13693;SDS011;6919;52.344;14.518;2024-03-07T05:02:47;44.97;;;23.57;;
13693;SDS011;6919;52.344;14.518;2024-03-07T05:05:18;40.73;;;23.37;;
13693;SDS011;6919;52.344;14.518;2024-03-07T05:07:49;43.73;;;22.23;;
13693;SDS011;6919;52.344;14.518;2024-03-07T05:10:19;36.17;;;22.63;;
13693;SDS011;6919;52.344;14.518;2024-03-07T05:12:48;41.30;;;23.00;;
13693;SDS011;6919;52.344;14.518;2024-03-07T05:15:17;41.10;;;23.33;;
13693;SDS011;6919;52.344;14.518;2024-03-07T05:17:45;46.00;;;23.83;;
13693;SDS011;6919;52.344;14.518;2024-03-07T05:20:14;36.33;;;22.53;;
13693;SDS011;6919;52.344;14.518;2024-03-07T05:22:42;38.50;;;23.27;;
13693;SDS011;6919;52.344;14.518;2024-03-07T05:25:16;39.10;;;23.20;;
13693;SDS011;6919;52.344;14.518;2024-03-07T05:27:47;42.73;;;24.00;;
13693;SDS011;6919;52.344;14.518;2024-03-07T05:30:17;46.37;;;23.70;;
13693;SDS011;6919;52.344;14.518;2024-03-07T05:32:45;36.13;;;22.20;;
13693;SDS011;6919;52.344;14.518;2024-03-07T05:35:14;51.77;;;24.83;;
13693;SDS011;6919;52.344;14.518;2024-03-07T05:37:47;44.53;;;25.10;;
13693;SDS011;6919;52.344;14.518;2024-03-07T05:40:17;37.57;;;23.73;;
13693;SDS011;6919;52.344;14.518;2024-03-07T05:42:47;40.17;;;24.27;;
13693;SDS011;6919;52.344;14.518;2024-03-07T05:45:15;47.13;;;25.60;;
13693;SDS011;6919;52.344;14.518;2024-03-07T05:47:44;45.60;;;25.87;;
13693;SDS011;6919;52.344;14.518;2024-03-07T05:50:16;42.43;;;24.67;;
13693;SDS011;6919;52.344;14.518;2024-03-07T05:52:45;135.27;;;55.00;;
13693;SDS011;6919;52.344;14.518;2024-03-07T05:55:15;71.33;;;32.93;;
13693;SDS011;6919;52.344;14.518;2024-03-07T05:57:47;68.77;;;35.53;;
13693;SDS011;6919;52.344;14.518;2024-03-07T06:00:15;116.83;;;47.60;;
13693;SDS011;6919;52.344;14.518;2024-03-07T06:02:54;84.43;;;35.43;;
13693;SDS011;6919;52.344;14.518;2024-03-07T06:05:22;47.70;;;26.40;;
13693;SDS011;6919;52.344;14.518;2024-03-07T06:07:51;45.83;;;24.57;;
13693;SDS011;6919;52.344;14.518;2024-03-07T06:10:19;40.90;;;24.20;;
13693;SDS011;6919;52.344;14.518;2024-03-07T06:12:51;44.27;;;22.77;;
13693;SDS011;6919;52.344;14.518;2024-03-07T06:15:23;44.27;;;24.47;;
13693;SDS011;6919;52.344;14.518;2024-03-07T06:17:50;48.77;;;23.87;;
13693;SDS011;6919;52.344;14.518;2024-03-07T06:20:19;38.83;;;23.03;;
13693;SDS011;6919;52.344;14.518;2024-03-07T06:22:51;38.63;;;22.20;;
13693;SDS011;6919;52.344;14.518;2024-03-07T06:25:19;40.23;;;23.50;;
13693;SDS011;6919;52.344;14.518;2024-03-07T06:28:01;44.00;;;21.63;;
13693;SDS011;6919;52.344;14.518;2024-03-07T06:30:37;46.07;;;24.97;;
13693;SDS011;6919;52.344;14.518;2024-03-07T06:33:07;38.90;;;22.43;;
13693;SDS011;6919;52.344;14.518;2024-03-07T06:35:36;36.60;;;21.43;;
13693;SDS011;6919;52.344;14.518;2024-03-07T06:38:05;40.47;;;21.97;;
13693;SDS011;6919;52.344;14.518;2024-03-07T06:40:35;33.67;;;20.70;;
13693;SDS011;6919;52.344;14.518;2024-03-07T06:43:04;36.03;;;21.50;;
13693;SDS011;6919;52.344;14.518;2024-03-07T06:45:33;34.07;;;22.03;;
13693;SDS011;6919;52.344;14.518;2024-03-07T06:48:03;40.77;;;21.77;;
13693;SDS011;6919;52.344;14.518;2024-03-07T06:50:34;38.47;;;22.00;;
13693;SDS011;6919;52.344;14.518;2024-03-07T06:53:04;41.93;;;21.63;;
13693;SDS011;6919;52.344;14.518;2024-03-07T06:55:35;40.93;;;21.57;;
13693;SDS011;6919;52.344;14.518;2024-03-07T06:58:05;35.00;;;21.67;;
13693;SDS011;6919;52.344;14.518;2024-03-07T07:00:34;38.40;;;21.57;;
13693;SDS011;6919;52.344;14.518;2024-03-07T07:03:04;30.97;;;20.90;;
13693;SDS011;6919;52.344;14.518;2024-03-07T07:05:33;32.97;;;19.83;;
13693;SDS011;6919;52.344;14.518;2024-03-07T07:08:03;39.33;;;21.60;;
13693;SDS011;6919;52.344;14.518;2024-03-07T07:10:33;37.87;;;20.60;;
13693;SDS011;6919;52.344;14.518;2024-03-07T07:13:02;32.23;;;18.67;;
13693;SDS011;6919;52.344;14.518;2024-03-07T07:15:33;38.10;;;20.00;;
13693;SDS011;6919;52.344;14.518;2024-03-07T07:18:03;32.43;;;19.53;;
13693;SDS011;6919;52.344;14.518;2024-03-07T07:20:33;33.77;;;19.33;;
13693;SDS011;6919;52.344;14.518;2024-03-07T07:23:02;30.97;;;19.57;;
13693;SDS011;6919;52.344;14.518;2024-03-07T07:25:31;33.40;;;18.50;;
13693;SDS011;6919;52.344;14.518;2024-03-07T07:28:00;31.83;;;18.20;;
13693;SDS011;6919;52.344;14.518;2024-03-07T07:30:32;34.97;;;18.13;;
13693;SDS011;6919;52.344;14.518;2024-03-07T07:33:01;28.33;;;17.27;;
13693;SDS011;6919;52.344;14.518;2024-03-07T07:35:29;39.37;;;19.10;;
13693;SDS011;6919;52.344;14.518;2024-03-07T07:37:59;27.70;;;16.90;;
13693;SDS011;6919;52.344;14.518;2024-03-07T07:40:28;31.57;;;18.40;;
13693;SDS011;6919;52.344;14.518;2024-03-07T07:42:57;31.63;;;17.97;;
13693;SDS011;6919;52.344;14.518;2024-03-07T07:45:27;37.70;;;18.00;;
13693;SDS011;6919;52.344;14.518;2024-03-07T07:47:57;33.63;;;18.60;;
13693;SDS011;6919;52.344;14.518;2024-03-07T07:50:26;34.23;;;17.57;;
13693;SDS011;6919;52.344;14.518;2024-03-07T07:52:55;30.43;;;18.00;;
13693;SDS011;6919;52.344;14.518;2024-03-07T07:55:26;29.57;;;16.90;;
13693;SDS011;6919;52.344;14.518;2024-03-07T07:57:55;29.33;;;17.80;;
13693;SDS011;6919;52.344;14.518;2024-03-07T08:00:26;31.47;;;16.53;;
13693;SDS011;6919;52.344;14.518;2024-03-07T08:02:59;25.87;;;16.23;;
13693;SDS011;6919;52.344;14.518;2024-03-07T08:05:30;28.63;;;16.93;;
13693;SDS011;6919;52.344;14.518;2024-03-07T08:08:01;28.37;;;16.93;;
13693;SDS011;6919;52.344;14.518;2024-03-07T08:10:33;24.90;;;15.07;;
13693;SDS011;6919;52.344;14.518;2024-03-07T08:13:03;29.13;;;16.13;;
13693;SDS011;6919;52.344;14.518;2024-03-07T08:15:34;23.53;;;15.40;;
13693;SDS011;6919;52.344;14.518;2024-03-07T08:18:04;24.90;;;15.17;;
13693;SDS011;6919;52.344;14.518;2024-03-07T08:20:36;21.70;;;14.57;;
13693;SDS011;6919;52.344;14.518;2024-03-07T08:23:05;29.23;;;15.10;;
13693;SDS011;6919;52.344;14.518;2024-03-07T08:25:33;23.97;;;14.47;;
13693;SDS011;6919;52.344;14.518;2024-03-07T08:28:03;27.23;;;15.03;;
13693;SDS011;6919;52.344;14.518;2024-03-07T08:30:31;22.90;;;15.63;;
13693;SDS011;6919;52.344;14.518;2024-03-07T08:33:01;21.53;;;13.63;;
13693;SDS011;6919;52.344;14.518;2024-03-07T08:35:32;27.43;;;13.97;;
13693;SDS011;6919;52.344;14.518;2024-03-07T08:38:02;22.47;;;14.33;;
13693;SDS011;6919;52.344;14.518;2024-03-07T08:40:31;23.97;;;14.57;;
13693;SDS011;6919;52.344;14.518;2024-03-07T08:43:00;24.37;;;14.90;;
13693;SDS011;6919;52.344;14.518;2024-03-07T08:45:30;21.17;;;14.60;;
13693;SDS011;6919;52.344;14.518;2024-03-07T08:48:01;22.83;;;14.40;;
13693;SDS011;6919;52.344;14.518;2024-03-07T08:50:33;23.37;;;14.47;;
13693;SDS011;6919;52.344;14.518;2024-03-07T08:53:04;23.73;;;14.23;;
13693;SDS011;6919;52.344;14.518;2024-03-07T08:55:33;20.50;;;12.97;;
13693;SDS011;6919;52.344;14.518;2024-03-07T08:58:03;19.10;;;13.07;;
13693;SDS011;6919;52.344;14.518;2024-03-07T09:00:34;25.20;;;12.60;;
13693;SDS011;6919;52.344;14.518;2024-03-07T09:03:07;26.13;;;12.40;;
13693;SDS011;6919;52.344;14.518;2024-03-07T09:05:39;25.97;;;13.10;;
13693;SDS011;6919;52.344;14.518;2024-03-07T09:08:08;18.80;;;12.00;;
13693;SDS011;6919;52.344;14.518;2024-03-07T09:10:37;24.37;;;13.93;;
13693;SDS011;6919;52.344;14.518;2024-03-07T09:13:10;26.53;;;12.93;;
13693;SDS011;6919;52.344;14.518;2024-03-07T09:15:38;22.57;;;12.03;;
13693;SDS011;6919;52.344;14.518;2024-03-07T09:18:08;21.70;;;13.13;;
13693;SDS011;6919;52.344;14.518;2024-03-07T09:20:36;20.70;;;12.77;;
13693;SDS011;6919;52.344;14.518;2024-03-07T09:23:05;22.57;;;12.83;;
13693;SDS011;6919;52.344;14.518;2024-03-07T09:25:34;18.60;;;12.53;;
13693;SDS011;6919;52.344;14.518;2024-03-07T09:28:02;20.07;;;11.57;;
13693;SDS011;6919;52.344;14.518;2024-03-07T09:30:33;23.33;;;13.20;;
13693;SDS011;6919;52.344;14.518;2024-03-07T09:33:05;22.40;;;12.73;;
13693;SDS011;6919;52.344;14.518;2024-03-07T09:35:38;17.17;;;10.93;;
13693;SDS011;6919;52.344;14.518;2024-03-07T09:38:07;14.73;;;11.10;;
13693;SDS011;6919;52.344;14.518;2024-03-07T09:40:35;25.07;;;11.87;;
13693;SDS011;6919;52.344;14.518;2024-03-07T09:43:04;16.60;;;10.93;;
13693;SDS011;6919;52.344;14.518;2024-03-07T09:45:37;18.47;;;10.63;;
13693;SDS011;6919;52.344;14.518;2024-03-07T09:48:14;18.73;;;10.87;;
13693;SDS011;6919;52.344;14.518;2024-03-07T09:50:43;17.30;;;11.17;;
13693;SDS011;6919;52.344;14.518;2024-03-07T09:53:18;17.27;;;10.87;;
13693;SDS011;6919;52.344;14.518;2024-03-07T09:55:48;15.70;;;10.33;;
13693;SDS011;6919;52.344;14.518;2024-03-07T09:58:17;23.90;;;11.60;;
13693;SDS011;6919;52.344;14.518;2024-03-07T10:00:48;22.13;;;11.10;;
13693;SDS011;6919;52.344;14.518;2024-03-07T10:03:20;18.93;;;12.37;;
13693;SDS011;6919;52.344;14.518;2024-03-07T10:05:51;18.70;;;11.77;;
13693;SDS011;6919;52.344;14.518;2024-03-07T10:08:20;18.07;;;11.53;;
13693;SDS011;6919;52.344;14.518;2024-03-07T10:10:51;17.50;;;10.53;;
13693;SDS011;6919;52.344;14.518;2024-03-07T10:13:21;17.00;;;11.23;;
13693;SDS011;6919;52.344;14.518;2024-03-07T10:15:52;15.87;;;10.23;;
13693;SDS011;6919;52.344;14.518;2024-03-07T10:18:27;20.23;;;12.00;;
13693;SDS011;6919;52.344;14.518;2024-03-07T10:20:56;16.37;;;10.93;;
13693;SDS011;6919;52.344;14.518;2024-03-07T10:23:26;22.47;;;10.13;;
13693;SDS011;6919;52.344;14.518;2024-03-07T10:25:55;17.17;;;11.10;;
13693;SDS011;6919;52.344;14.518;2024-03-07T10:28:23;17.97;;;10.97;;
13693;SDS011;6919;52.344;14.518;2024-03-07T10:30:54;16.20;;;10.33;;
13693;SDS011;6919;52.344;14.518;2024-03-07T10:33:26;18.63;;;11.13;;
13693;SDS011;6919;52.344;14.518;2024-03-07T10:35:59;20.40;;;10.10;;
13693;SDS011;6919;52.344;14.518;2024-03-07T10:38:28;21.03;;;11.17;;
13693;SDS011;6919;52.344;14.518;2024-03-07T10:40:56;16.20;;;10.43;;
13693;SDS011;6919;52.344;14.518;2024-03-07T10:43:28;19.73;;;10.17;;
13693;SDS011;6919;52.344;14.518;2024-03-07T10:46:07;17.30;;;10.50;;
13693;SDS011;6919;52.344;14.518;2024-03-07T10:48:40;21.40;;;11.10;;
13693;SDS011;6919;52.344;14.518;2024-03-07T10:51:14;16.77;;;10.93;;
13693;SDS011;6919;52.344;14.518;2024-03-07T10:53:56;15.57;;;10.03;;
13693;SDS011;6919;52.344;14.518;2024-03-07T10:56:41;17.60;;;10.60;;
13693;SDS011;6919;52.344;14.518;2024-03-07T10:59:26;15.83;;;10.20;;
13693;SDS011;6919;52.344;14.518;2024-03-07T11:02:05;20.67;;;11.07;;
13693;SDS011;6919;52.344;14.518;2024-03-07T11:04:44;17.17;;;10.43;;
13693;SDS011;6919;52.344;14.518;2024-03-07T11:07:15;18.53;;;11.17;;
13693;SDS011;6919;52.344;14.518;2024-03-07T11:09:44;18.10;;;12.17;;
13693;SDS011;6919;52.344;14.518;2024-03-07T11:12:18;17.43;;;10.90;;
13693;SDS011;6919;52.344;14.518;2024-03-07T11:14:49;19.67;;;11.07;;
13693;SDS011;6919;52.344;14.518;2024-03-07T11:17:20;17.07;;;10.60;;
13693;SDS011;6919;52.344;14.518;2024-03-07T11:19:52;16.77;;;10.63;;
13693;SDS011;6919;52.344;14.518;2024-03-07T11:22:30;18.20;;;10.00;;
13693;SDS011;6919;52.344;14.518;2024-03-07T11:25:02;17.03;;;11.23;;
13693;SDS011;6919;52.344;14.518;2024-03-07T11:27:36;15.83;;;10.00;;
13693;SDS011;6919;52.344;14.518;2024-03-07T11:30:06;18.47;;;11.70;;
13693;SDS011;6919;52.344;14.518;2024-03-07T11:32:38;18.57;;;10.87;;
13693;SDS011;6919;52.344;14.518;2024-03-07T11:35:12;17.07;;;11.20;;
13693;SDS011;6919;52.344;14.518;2024-03-07T11:37:42;16.43;;;10.73;;
13693;SDS011;6919;52.344;14.518;2024-03-07T11:43:11;14.63;;;10.40;;
13693;SDS011;6919;52.344;14.518;2024-03-07T11:45:40;18.07;;;11.57;;
13693;SDS011;6919;52.344;14.518;2024-03-07T11:48:12;18.53;;;10.40;;
13693;SDS011;6919;52.344;14.518;2024-03-07T11:50:42;18.40;;;11.47;;
13693;SDS011;6919;52.344;14.518;2024-03-07T11:53:10;17.50;;;11.17;;
13693;SDS011;6919;52.344;14.518;2024-03-07T11:55:39;18.83;;;11.90;;
13693;SDS011;6919;52.344;14.518;2024-03-07T11:58:12;16.97;;;11.27;;
13693;SDS011;6919;52.344;14.518;2024-03-07T12:00:43;22.30;;;11.33;;
13693;SDS011;6919;52.344;14.518;2024-03-07T12:03:13;18.97;;;11.27;;
13693;SDS011;6919;52.344;14.518;2024-03-07T12:05:46;17.80;;;11.53;;
13693;SDS011;6919;52.344;14.518;2024-03-07T12:08:17;16.40;;;11.50;;
13693;SDS011;6919;52.344;14.518;2024-03-07T12:10:49;15.70;;;11.67;;
13693;SDS011;6919;52.344;14.518;2024-03-07T12:13:20;20.77;;;10.97;;
13693;SDS011;6919;52.344;14.518;2024-03-07T12:15:51;18.43;;;11.40;;
13693;SDS011;6919;52.344;14.518;2024-03-07T12:18:21;16.33;;;11.17;;
13693;SDS011;6919;52.344;14.518;2024-03-07T12:20:53;17.43;;;11.37;;
13693;SDS011;6919;52.344;14.518;2024-03-07T12:23:22;16.00;;;10.63;;
13693;SDS011;6919;52.344;14.518;2024-03-07T12:25:59;18.60;;;12.33;;
13693;SDS011;6919;52.344;14.518;2024-03-07T12:28:29;16.30;;;11.13;;
13693;SDS011;6919;52.344;14.518;2024-03-07T12:31:00;18.50;;;10.63;;
13693;SDS011;6919;52.344;14.518;2024-03-07T12:33:30;14.77;;;10.07;;
13693;SDS011;6919;52.344;14.518;2024-03-07T12:36:08;14.23;;;9.33;;
13693;SDS011;6919;52.344;14.518;2024-03-07T12:38:38;17.10;;;9.83;;
13693;SDS011;6919;52.344;14.518;2024-03-07T12:41:09;15.47;;;9.87;;
13693;SDS011;6919;52.344;14.518;2024-03-07T12:43:43;15.23;;;10.13;;
13693;SDS011;6919;52.344;14.518;2024-03-07T12:46:12;21.07;;;10.37;;
13693;SDS011;6919;52.344;14.518;2024-03-07T12:48:42;12.93;;;9.47;;
13693;SDS011;6919;52.344;14.518;2024-03-07T12:51:15;15.63;;;10.20;;
13693;SDS011;6919;52.344;14.518;2024-03-07T12:53:46;14.43;;;9.43;;
13693;SDS011;6919;52.344;14.518;2024-03-07T12:56:15;14.57;;;9.07;;
13693;SDS011;6919;52.344;14.518;2024-03-07T12:58:46;15.33;;;10.53;;
13693;SDS011;6919;52.344;14.518;2024-03-07T13:01:16;17.93;;;11.13;;
13693;SDS011;6919;52.344;14.518;2024-03-07T13:03:46;20.33;;;10.53;;
13693;SDS011;6919;52.344;14.518;2024-03-07T13:06:17;17.10;;;10.97;;
13693;SDS011;6919;52.344;14.518;2024-03-07T13:08:52;14.40;;;9.93;;
13693;SDS011;6919;52.344;14.518;2024-03-07T13:11:23;15.13;;;9.40;;
13693;SDS011;6919;52.344;14.518;2024-03-07T13:13:54;14.80;;;9.97;;
13693;SDS011;6919;52.344;14.518;2024-03-07T13:16:22;16.00;;;10.37;;
13693;SDS011;6919;52.344;14.518;2024-03-07T13:18:56;17.03;;;10.37;;
13693;SDS011;6919;52.344;14.518;2024-03-07T13:21:26;16.10;;;10.10;;
13693;SDS011;6919;52.344;14.518;2024-03-07T13:23:56;16.33;;;10.97;;
13693;SDS011;6919;52.344;14.518;2024-03-07T13:26:26;16.20;;;9.50;;
13693;SDS011;6919;52.344;14.518;2024-03-07T13:28:58;19.70;;;10.93;;
13693;SDS011;6919;52.344;14.518;2024-03-07T13:31:28;22.13;;;10.83;;
13693;SDS011;6919;52.344;14.518;2024-03-07T13:33:56;13.80;;;10.57;;
13693;SDS011;6919;52.344;14.518;2024-03-07T13:36:29;16.17;;;10.33;;
13693;SDS011;6919;52.344;14.518;2024-03-07T13:38:58;20.83;;;11.23;;
13693;SDS011;6919;52.344;14.518;2024-03-07T13:41:26;15.30;;;11.00;;
13693;SDS011;6919;52.344;14.518;2024-03-07T13:43:55;13.40;;;9.73;;
13693;SDS011;6919;52.344;14.518;2024-03-07T13:46:26;19.17;;;11.07;;
13693;SDS011;6919;52.344;14.518;2024-03-07T13:48:55;14.50;;;10.53;;
13693;SDS011;6919;52.344;14.518;2024-03-07T13:51:34;15.23;;;10.70;;
13693;SDS011;6919;52.344;14.518;2024-03-07T13:54:03;15.73;;;11.77;;
13693;SDS011;6919;52.344;14.518;2024-03-07T13:56:55;17.07;;;11.30;;
13693;SDS011;6919;52.344;14.518;2024-03-07T14:02:59;16.23;;;10.43;;
13693;SDS011;6919;52.344;14.518;2024-03-07T14:06:00;13.40;;;10.20;;
13693;SDS011;6919;52.344;14.518;2024-03-07T14:08:56;13.73;;;9.87;;
13693;SDS011;6919;52.344;14.518;2024-03-07T14:12:20;14.80;;;10.13;;
13693;SDS011;6919;52.344;14.518;2024-03-07T14:22:21;14.87;;;10.33;;
13693;SDS011;6919;52.344;14.518;2024-03-07T14:25:26;14.87;;;10.47;;
13693;SDS011;6919;52.344;14.518;2024-03-07T14:28:16;14.07;;;10.07;;
13693;SDS011;6919;52.344;14.518;2024-03-07T14:31:15;14.53;;;10.60;;
13693;SDS011;6919;52.344;14.518;2024-03-07T14:34:04;14.60;;;10.57;;
13693;SDS011;6919;52.344;14.518;2024-03-07T14:36:43;15.13;;;10.17;;
13693;SDS011;6919;52.344;14.518;2024-03-07T14:39:15;15.83;;;10.40;;
13693;SDS011;6919;52.344;14.518;2024-03-07T14:41:51;22.13;;;10.20;;
13693;SDS011;6919;52.344;14.518;2024-03-07T14:44:25;17.70;;;10.43;;
13693;SDS011;6919;52.344;14.518;2024-03-07T14:46:55;13.17;;;9.70;;
13693;SDS011;6919;52.344;14.518;2024-03-07T14:49:32;13.80;;;9.50;;
13693;SDS011;6919;52.344;14.518;2024-03-07T14:52:02;12.70;;;9.47;;
13693;SDS011;6919;52.344;14.518;2024-03-07T14:54:38;12.30;;;8.90;;
13693;SDS011;6919;52.344;14.518;2024-03-07T14:57:08;15.53;;;9.60;;